Time;durP1;ratioP1;P1;durP2;ratioP2;P2;SDS_P1;SDS_P2;PMS_P1;PMS_P2;Temp;Humidity;BMP_temperature;BMP_pressure;BME280_temperature;BME280_humidity;BME280_pressure;Samples;Min_cycle;Max_cycle;Signal;HPM_P1;HPM_P2
2021/10/06 00:02:18;;;;;;;2.83;1.07;;;;;;;12.65;80.65;99902.13;5045428;28;20277;-77
2021/10/06 00:04:45;;;;;;;1.90;1.03;;;;;;;12.74;80.86;99887.81;5045291;28;20208;-78
2021/10/06 00:07:11;;;;;;;1.30;1.00;;;;;;;12.77;81.60;99879.03;5045051;28;20786;-77
2021/10/06 00:09:37;;;;;;;3.00;1.03;;;;;;;12.67;81.18;99881.97;5044291;28;20814;-78
2021/10/06 00:12:04;;;;;;;1.77;0.90;;;;;;;12.66;81.10;99885.50;5044828;28;20642;-77
2021/10/06 00:14:31;;;;;;;2.60;1.27;;;;;;;12.68;81.54;99869.72;5044656;28;20227;-77
2021/10/06 00:16:59;;;;;;;1.50;1.10;;;;;;;12.71;82.31;99846.06;5044473;28;20265;-79
2021/10/06 00:19:26;;;;;;;1.17;0.90;;;;;;;12.74;81.67;99871.28;5044655;28;20240;-79
2021/10/06 00:21:52;;;;;;;3.07;0.90;;;;;;;12.79;81.02;99892.91;5044008;28;20218;-79
2021/10/06 00:24:18;;;;;;;1.73;1.10;;;;;;;12.79;81.39;99888.53;5044783;28;20689;-77
2021/10/06 00:26:45;;;;;;;2.60;1.00;;;;;;;12.75;81.63;99889.56;5044855;28;20235;-79
2021/10/06 00:29:11;;;;;;;2.70;0.90;;;;;;;12.80;81.30;99899.84;5043763;28;20206;-78
2021/10/06 00:31:38;;;;;;;1.77;1.00;;;;;;;12.83;81.51;99902.38;5044210;28;20208;-77
2021/10/06 00:34:05;;;;;;;4.13;1.03;;;;;;;12.80;81.58;99892.84;5045044;28;20280;-78
2021/10/06 00:36:32;;;;;;;1.23;0.90;;;;;;;12.78;81.98;99888.56;5044332;28;20236;-79
2021/10/06 00:38:58;;;;;;;2.37;0.97;;;;;;;12.73;81.58;99898.38;5044039;28;20213;-77
2021/10/06 00:41:25;;;;;;;1.77;0.90;;;;;;;12.69;81.18;99911.56;5045322;28;20216;-79
2021/10/06 00:43:51;;;;;;;2.43;0.83;;;;;;;12.72;81.15;99934.16;5043253;28;20261;-78
2021/10/06 00:46:17;;;;;;;3.50;0.97;;;;;;;12.73;81.57;99924.56;5043904;28;20264;-77
2021/10/06 00:48:44;;;;;;;2.23;1.20;;;;;;;12.76;81.30;99914.81;5044280;28;20203;-79
2021/10/06 00:51:14;;;;;;;1.63;1.03;;;;;;;12.81;82.18;99904.19;5043939;28;20743;-79
2021/10/06 00:53:40;;;;;;;2.40;1.10;;;;;;;12.79;81.15;99933.06;5044249;28;20206;-79
2021/10/06 00:56:07;;;;;;;1.80;0.90;;;;;;;12.77;80.62;99939.25;5043845;28;20621;-77
2021/10/06 00:58:33;;;;;;;3.00;1.30;;;;;;;12.78;80.16;99964.53;5043365;28;20269;-78
2021/10/06 01:01:00;;;;;;;4.13;1.23;;;;;;;12.80;81.03;99941.75;5044285;28;20223;-78
2021/10/06 01:03:26;;;;;;;2.83;1.00;;;;;;;12.77;81.22;99929.63;5043648;28;20741;-78
2021/10/06 01:05:53;;;;;;;4.40;1.00;;;;;;;12.77;81.13;99949.75;5043948;28;20266;-78
2021/10/06 01:08:21;;;;;;;2.27;1.10;;;;;;;12.59;80.05;99975.66;5043728;28;20235;-79
2021/10/06 01:10:48;;;;;;;1.70;1.10;;;;;;;12.65;80.89;99961.50;5043275;28;20253;-79
2021/10/06 01:13:16;;;;;;;1.80;1.13;;;;;;;12.60;80.75;99968.66;5044794;28;20219;-77
2021/10/06 01:15:43;;;;;;;2.60;1.30;;;;;;;12.62;80.63;99966.84;5044110;28;20223;-79
2021/10/06 01:18:09;;;;;;;3.10;1.40;;;;;;;12.46;80.04;99990.06;5043577;28;20230;-77
2021/10/06 01:20:36;;;;;;;2.60;1.17;;;;;;;12.51;80.60;99985.53;5043716;28;20638;-77
2021/10/06 01:23:04;;;;;;;2.57;1.47;;;;;;;12.56;80.13;99991.47;5044110;28;20219;-79
2021/10/06 01:25:30;;;;;;;2.47;1.20;;;;;;;12.40;80.04;99992.91;5043540;28;20211;-78
2021/10/06 01:27:56;;;;;;;4.83;1.50;;;;;;;12.41;80.70;99958.81;5043117;28;20226;-79
2021/10/06 01:30:23;;;;;;;4.07;1.40;;;;;;;12.35;80.85;99968.63;5043979;28;20210;-77
2021/10/06 01:32:49;;;;;;;3.57;1.33;;;;;;;12.30;80.59;99972.25;5044172;28;20212;-79
2021/10/06 01:35:16;;;;;;;3.63;1.27;;;;;;;12.29;80.52;99969.72;5043716;28;20640;-79
2021/10/06 01:37:44;;;;;;;3.33;1.50;;;;;;;12.31;81.01;99960.91;5043492;28;20717;-77
2021/10/06 01:40:14;;;;;;;1.90;1.30;;;;;;;12.22;81.23;99971.66;5043861;28;20206;-78
2021/10/06 01:42:41;;;;;;;3.73;1.73;;;;;;;12.26;81.81;99948.88;5043498;28;20301;-79
2021/10/06 01:45:15;;;;;;;2.50;1.10;;;;;;;12.27;82.05;99947.97;5043841;28;20205;-78
2021/10/06 01:47:41;;;;;;;2.53;1.47;;;;;;;12.32;81.62;99944.28;5043458;28;20291;-77
2021/10/06 01:50:09;;;;;;;1.87;1.47;;;;;;;12.35;81.27;99963.41;5043724;28;20208;-79
2021/10/06 01:52:35;;;;;;;2.53;1.40;;;;;;;12.37;80.88;99974.66;5043935;28;20211;-79
2021/10/06 01:55:01;;;;;;;2.40;1.10;;;;;;;12.40;81.54;99972.81;5043670;28;20717;-77
2021/10/06 01:57:29;;;;;;;1.97;1.40;;;;;;;12.41;80.79;99985.00;5047443;28;20655;-79
2021/10/06 01:59:55;;;;;;;2.83;1.10;;;;;;;12.45;80.49;100001.47;5046431;28;20246;-79
2021/10/06 02:02:22;;;;;;;1.93;1.20;;;;;;;12.40;79.91;100019.06;5047281;28;20208;-77
2021/10/06 02:04:48;;;;;;;2.70;1.20;;;;;;;12.40;79.82;100027.78;5048108;28;20211;-76
2021/10/06 02:07:14;;;;;;;1.57;1.27;;;;;;;12.44;81.25;100010.22;5046969;28;20640;-79
2021/10/06 02:09:41;;;;;;;1.40;1.30;;;;;;;12.46;80.01;99995.31;5046991;28;20271;-77
2021/10/06 02:12:07;;;;;;;1.70;1.10;;;;;;;12.43;79.69;100030.31;5047594;28;20257;-78
2021/10/06 02:14:35;;;;;;;2.53;1.10;;;;;;;12.39;79.72;100036.56;5046605;28;20262;-79
2021/10/06 02:17:02;;;;;;;5.30;1.20;;;;;;;12.29;79.86;100035.16;5046830;28;20230;-77
2021/10/06 02:19:28;;;;;;;1.70;1.30;;;;;;;12.35;80.04;100020.97;5046900;28;20269;-77
2021/10/06 02:21:54;;;;;;;1.80;1.00;;;;;;;12.36;79.99;100027.94;5047599;28;20254;-79
2021/10/06 02:24:21;;;;;;;1.50;1.30;;;;;;;12.29;79.96;100037.75;5047339;28;20215;-77
2021/10/06 02:26:48;;;;;;;2.83;1.27;;;;;;;12.18;79.92;100035.47;5046684;28;20311;-78
2021/10/06 02:29:14;;;;;;;2.47;1.43;;;;;;;12.21;79.98;100030.16;5046669;28;20212;-78
2021/10/06 02:31:42;;;;;;;2.87;1.20;;;;;;;12.25;80.97;100015.19;5046849;28;20212;-79
2021/10/06 02:34:08;;;;;;;2.23;1.40;;;;;;;12.18;80.77;100016.31;5046805;28;20269;-78
2021/10/06 02:36:35;;;;;;;1.63;1.20;;;;;;;12.22;80.40;100028.38;5046723;28;20239;-79
2021/10/06 02:39:01;;;;;;;2.90;1.80;;;;;;;12.22;80.28;100029.22;5046200;28;20203;-78
2021/10/06 02:41:28;;;;;;;2.83;1.30;;;;;;;12.29;80.07;100036.00;5044890;28;20278;-78
2021/10/06 02:43:54;;;;;;;1.23;1.13;;;;;;;12.30;79.84;100042.06;5046504;28;20215;-78
2021/10/06 02:46:21;;;;;;;2.27;1.43;;;;;;;12.36;80.58;100025.31;5045856;28;20231;-78
2021/10/06 02:48:48;;;;;;;1.43;1.23;;;;;;;12.29;80.15;100051.69;5045961;28;20208;-76
2021/10/06 02:51:15;;;;;;;2.23;1.33;;;;;;;12.30;79.88;100060.38;5046809;28;20219;-78
2021/10/06 02:53:41;;;;;;;1.83;1.60;;;;;;;12.36;80.07;100052.34;5046658;28;20219;-79
2021/10/06 02:56:08;;;;;;;1.40;1.30;;;;;;;12.45;80.05;100053.81;5045603;28;20276;-77
2021/10/06 02:58:34;;;;;;;2.63;1.40;;;;;;;12.33;79.94;100062.94;5045872;28;21348;-78
2021/10/06 03:01:00;;;;;;;2.10;1.27;;;;;;;12.31;80.53;100047.25;5046365;28;20252;-79
2021/10/06 03:03:27;;;;;;;2.80;1.37;;;;;;;12.32;80.20;100061.19;5046318;28;20261;-78
2021/10/06 03:05:55;;;;;;;1.73;1.20;;;;;;;12.38;81.03;100032.19;5046252;28;20244;-79
2021/10/06 03:08:21;;;;;;;3.33;1.30;;;;;;;12.31;79.76;100057.72;5044692;28;20231;-78
2021/10/06 03:10:47;;;;;;;1.70;1.20;;;;;;;12.21;79.87;100073.75;5044797;28;20690;-78
2021/10/06 03:13:14;;;;;;;3.07;1.43;;;;;;;12.21;80.29;100038.00;5045611;28;20208;-77
2021/10/06 03:15:40;;;;;;;1.90;1.23;;;;;;;12.09;80.30;100041.88;5045838;28;20714;-79
2021/10/06 03:18:06;;;;;;;2.70;1.30;;;;;;;12.15;81.36;100019.00;5045253;28;20303;-78
2021/10/06 03:20:33;;;;;;;1.40;1.30;;;;;;;12.14;81.83;100005.09;5046431;28;20218;-78
2021/10/06 03:23:03;;;;;;;3.13;1.20;;;;;;;12.07;81.13;100024.47;5045453;28;20215;-78
2021/10/06 03:25:29;;;;;;;2.57;1.40;;;;;;;12.10;80.97;100046.19;5045775;28;20269;-78
2021/10/06 03:27:56;;;;;;;1.80;1.07;;;;;;;12.09;80.53;100052.34;5045281;28;20235;-78
2021/10/06 03:30:23;;;;;;;1.50;1.40;;;;;;;12.07;80.25;100063.72;5045453;28;20221;-79
2021/10/06 03:32:49;;;;;;;2.00;1.20;;;;;;;12.06;81.20;100036.72;5045577;28;20207;-79
2021/10/06 03:35:18;;;;;;;2.43;1.10;;;;;;;12.02;80.98;100044.72;5045515;28;20231;-77
2021/10/06 03:37:44;;;;;;;1.20;1.10;;;;;;;12.00;81.19;100044.75;5045131;28;20639;-77
2021/10/06 03:40:12;;;;;;;2.50;1.47;;;;;;;11.99;81.89;100013.41;5045802;28;20215;-78
2021/10/06 03:42:39;;;;;;;2.20;1.00;;;;;;;11.94;81.44;100042.34;5045534;28;20751;-78
2021/10/06 03:45:07;;;;;;;1.23;1.07;;;;;;;11.97;81.26;100030.91;5045453;28;21448;-79
2021/10/06 03:47:34;;;;;;;1.53;1.23;;;;;;;12.01;80.98;100048.22;5044944;28;20283;-78
2021/10/06 03:50:00;;;;;;;3.73;1.60;;;;;;;11.99;81.65;100053.53;5045184;28;20215;-78
2021/10/06 03:52:26;;;;;;;2.20;1.00;;;;;;;11.96;82.10;100031.84;5044722;28;20612;-78
2021/10/06 03:54:53;;;;;;;1.73;1.00;;;;;;;11.95;81.90;100043.19;5045204;28;20269;-77
2021/10/06 03:57:21;;;;;;;3.63;1.27;;;;;;;11.89;81.44;100046.84;5045413;28;20227;-78
2021/10/06 03:59:47;;;;;;;2.00;1.30;;;;;;;11.88;81.27;100061.66;5045192;28;20263;-79
2021/10/06 04:02:13;;;;;;;2.87;1.40;;;;;;;11.83;81.67;100058.34;5045156;28;20264;-79
2021/10/06 04:04:40;;;;;;;2.43;1.10;;;;;;;11.89;81.06;100073.00;5045543;28;20215;-78
2021/10/06 04:07:06;;;;;;;2.90;1.57;;;;;;;11.84;81.05;100080.09;5044377;28;20283;-78
2021/10/06 04:09:33;;;;;;;2.73;1.23;;;;;;;11.71;81.51;100062.19;5044875;28;20215;-77
2021/10/06 04:11:59;;;;;;;1.60;1.10;;;;;;;11.77;81.56;100068.09;5045219;28;20214;-78
2021/10/06 04:14:27;;;;;;;1.97;1.17;;;;;;;11.75;81.53;100060.31;5044975;28;20270;-78
2021/10/06 04:16:54;;;;;;;1.27;1.17;;;;;;;11.71;82.08;100056.06;5044234;28;20227;-79
2021/10/06 04:19:20;;;;;;;2.37;1.30;;;;;;;11.69;81.77;100057.88;5044111;28;20213;-78
2021/10/06 04:21:47;;;;;;;2.97;1.13;;;;;;;11.61;82.08;100044.19;5044247;28;20214;-79
2021/10/06 04:24:13;;;;;;;1.67;1.10;;;;;;;11.61;82.15;100031.09;5044549;28;20621;-77
2021/10/06 04:26:39;;;;;;;1.63;1.03;;;;;;;11.60;82.01;100055.56;5044716;28;20232;-77
2021/10/06 04:29:06;;;;;;;1.27;1.17;;;;;;;11.52;81.64;100072.31;5043727;28;20211;-78
2021/10/06 04:31:33;;;;;;;1.57;1.10;;;;;;;11.61;82.25;100062.47;5043956;28;20207;-78
2021/10/06 04:34:00;;;;;;;3.83;1.70;;;;;;;11.62;81.44;100067.66;5043202;28;20215;-76
2021/10/06 04:36:26;;;;;;;2.07;1.47;;;;;;;11.57;81.60;100079.16;5043811;28;20230;-78
2021/10/06 04:38:53;;;;;;;2.63;1.40;;;;;;;11.50;81.63;100065.41;5043698;28;20264;-78
2021/10/06 04:41:19;;;;;;;2.90;1.20;;;;;;;11.48;81.53;100078.53;5043059;28;20704;-76
2021/10/06 04:43:46;;;;;;;1.87;1.00;;;;;;;11.53;81.80;100073.16;5043590;28;20384;-78
2021/10/06 04:46:12;;;;;;;1.90;1.10;;;;;;;11.53;81.95;100084.50;5042772;28;20207;-78
2021/10/06 04:48:40;;;;;;;1.47;1.37;;;;;;;11.53;81.69;100081.00;5042033;28;20253;-77
2021/10/06 04:51:06;;;;;;;2.33;1.20;;;;;;;11.41;81.77;100087.41;5043388;28;20263;-77
2021/10/06 04:53:33;;;;;;;1.50;1.20;;;;;;;11.32;82.17;100085.09;5043243;28;20223;-78
2021/10/06 04:55:59;;;;;;;3.80;1.13;;;;;;;11.35;82.24;100074.53;5043578;28;20454;-77
2021/10/06 04:58:25;;;;;;;1.73;1.10;;;;;;;11.40;81.67;100085.72;5043508;28;20281;-79
2021/10/06 05:00:52;;;;;;;1.70;1.30;;;;;;;11.42;81.94;100094.38;5042436;28;20279;-77
2021/10/06 05:03:18;;;;;;;1.63;1.50;;;;;;;11.38;81.59;100100.59;5042310;28;20614;-77
2021/10/06 05:05:46;;;;;;;1.10;1.00;;;;;;;11.36;81.70;100102.41;5043894;28;20666;-79
2021/10/06 05:08:12;;;;;;;3.27;1.13;;;;;;;11.31;82.09;100101.66;5043153;28;21016;-79
2021/10/06 05:10:39;;;;;;;1.17;1.10;;;;;;;11.32;82.21;100101.63;5043007;28;20232;-79
2021/10/06 05:13:05;;;;;;;1.83;0.93;;;;;;;11.32;82.33;100087.69;5043285;28;20260;-78
2021/10/06 05:15:32;;;;;;;2.87;1.20;;;;;;;11.33;81.74;100105.94;5043467;28;20238;-79
2021/10/06 05:17:58;;;;;;;2.30;1.00;;;;;;;11.39;81.97;100088.38;5042625;28;20228;-79
2021/10/06 05:20:25;;;;;;;1.33;1.07;;;;;;;11.43;81.60;100108.28;5042515;28;20211;-77
2021/10/06 05:22:53;;;;;;;2.53;1.07;;;;;;;11.32;81.58;100114.69;5043269;28;20442;-79
2021/10/06 05:25:21;;;;;;;2.50;1.20;;;;;;;11.37;81.85;100088.41;5043583;28;20210;-78
2021/10/06 05:27:47;;;;;;;2.40;0.80;;;;;;;11.35;81.98;100097.19;5042612;28;20730;-78
2021/10/06 05:30:14;;;;;;;1.93;0.90;;;;;;;11.35;81.96;100100.66;5042206;28;20206;-77
2021/10/06 05:32:41;;;;;;;1.40;0.83;;;;;;;11.39;81.69;100104.06;5043691;28;20219;-78
2021/10/06 05:35:09;;;;;;;1.27;1.03;;;;;;;11.38;81.72;100115.38;5044619;28;20206;-79
2021/10/06 05:37:35;;;;;;;1.13;0.83;;;;;;;11.33;81.75;100103.31;5044049;28;20587;-77
2021/10/06 05:40:03;;;;;;;1.80;1.00;;;;;;;11.37;81.40;100134.59;5044114;28;20781;-78
2021/10/06 05:42:30;;;;;;;2.90;1.00;;;;;;;11.33;81.82;100113.75;5044409;28;20276;-78
2021/10/06 05:44:56;;;;;;;1.43;0.90;;;;;;;11.28;81.44;100125.28;5042978;28;20274;-78
2021/10/06 05:47:22;;;;;;;1.93;0.90;;;;;;;11.26;81.78;100120.06;5042939;28;20230;-78
2021/10/06 05:49:50;;;;;;;1.23;1.13;;;;;;;11.29;81.91;100129.56;5043160;28;20206;-78
2021/10/06 05:52:16;;;;;;;0.97;0.90;;;;;;;11.31;81.96;100130.38;5043006;28;20574;-77
2021/10/06 05:54:42;;;;;;;2.37;0.90;;;;;;;11.31;81.86;100135.63;5043467;28;20219;-77
2021/10/06 05:57:10;;;;;;;0.90;0.70;;;;;;;11.23;82.07;100145.41;5043339;28;20229;-79
2021/10/06 05:59:37;;;;;;;1.47;0.90;;;;;;;11.23;82.17;100143.66;5042342;28;20561;-79
2021/10/06 06:02:03;;;;;;;0.70;0.70;;;;;;;11.32;82.51;100124.28;5043667;28;20219;-78
2021/10/06 06:04:30;;;;;;;2.73;0.83;;;;;;;11.36;82.31;100146.81;5043477;28;20255;-80
2021/10/06 06:06:56;;;;;;;1.37;0.80;;;;;;;11.37;82.08;100163.34;5042665;28;20226;-78
2021/10/06 06:09:22;;;;;;;1.53;0.80;;;;;;;11.37;82.54;100139.81;5043060;28;20273;-78
2021/10/06 06:11:49;;;;;;;0.87;0.70;;;;;;;11.33;82.46;100152.13;5042041;28;20238;-79
2021/10/06 06:14:17;;;;;;;1.30;0.90;;;;;;;11.33;82.21;100152.13;5042936;28;20267;-78
2021/10/06 06:16:44;;;;;;;2.27;0.90;;;;;;;11.29;82.97;100150.47;5041909;28;20242;-78
2021/10/06 06:19:10;;;;;;;1.70;0.83;;;;;;;11.31;82.78;100140.84;5043373;28;20232;-82
2021/10/06 06:21:37;;;;;;;1.17;0.70;;;;;;;11.30;82.68;100144.38;5043491;28;21090;-84
2021/10/06 06:24:04;;;;;;;1.50;0.83;;;;;;;11.30;82.92;100142.59;5044724;28;20202;-84
2021/10/06 06:26:31;;;;;;;1.70;0.80;;;;;;;11.30;82.96;100134.78;5043537;28;20263;-81
2021/10/06 06:28:57;;;;;;;3.70;0.97;;;;;;;11.39;83.17;100122.34;5044836;28;20212;-85
2021/10/06 06:31:25;;;;;;;0.70;0.67;;;;;;;11.36;82.54;100145.94;5044729;28;20229;-84
2021/10/06 06:33:51;;;;;;;2.97;0.90;;;;;;;11.32;82.39;100166.09;5043513;28;20927;-87
2021/10/06 06:36:18;;;;;;;2.30;0.90;;;;;;;11.33;83.36;100142.50;5045490;28;20228;-85
2021/10/06 06:38:44;;;;;;;0.90;0.90;;;;;;;11.35;82.81;100152.94;5043875;28;20203;-85
2021/10/06 06:41:11;;;;;;;2.00;0.90;;;;;;;11.38;82.96;100150.25;5044279;28;20207;-83
2021/10/06 06:43:37;;;;;;;2.40;0.87;;;;;;;11.44;82.97;100154.47;5047843;28;20625;-84
2021/10/06 06:46:03;;;;;;;7.93;1.20;;;;;;;11.47;83.27;100155.19;5046810;28;20203;-84
2021/10/06 06:48:31;;;;;;;2.07;0.80;;;;;;;11.52;82.87;100171.63;5047370;28;20205;-81
2021/10/06 06:50:59;;;;;;;1.93;1.10;;;;;;;11.58;83.60;100160.16;5046870;28;20261;-85
2021/10/06 06:53:27;;;;;;;1.47;1.00;;;;;;;11.63;83.02;100162.63;5046463;28;20237;-83
2021/10/06 06:55:53;;;;;;;2.43;1.10;;;;;;;11.73;82.93;100169.31;5046924;28;20215;-86
2021/10/06 06:58:20;;;;;;;2.10;0.90;;;;;;;11.84;83.05;100166.41;5047447;28;21124;-83
2021/10/06 07:00:47;;;;;;;4.23;0.90;;;;;;;11.84;82.26;100187.34;5048367;28;20631;-84
2021/10/06 07:03:13;;;;;;;2.77;0.83;;;;;;;11.90;82.72;100169.72;5048063;28;20214;-86
2021/10/06 07:05:41;;;;;;;1.97;1.13;;;;;;;11.90;81.21;100211.56;5047337;28;20232;-85
2021/10/06 07:08:08;;;;;;;5.73;1.17;;;;;;;11.88;81.36;100222.97;5045801;28;20635;-83
2021/10/06 07:10:34;;;;;;;3.00;1.10;;;;;;;11.91;81.36;100220.28;5045412;28;20443;-84
2021/10/06 07:13:01;;;;;;;1.73;0.80;;;;;;;11.90;80.85;100237.72;5045336;28;20204;-85
2021/10/06 07:15:27;;;;;;;1.67;0.80;;;;;;;11.94;81.23;100235.91;5046017;28;20208;-87
2021/10/06 07:17:54;;;;;;;1.80;0.80;;;;;;;11.98;81.38;100228.81;5046741;28;20249;-79
2021/10/06 07:20:21;;;;;;;1.67;0.87;;;;;;;11.97;80.74;100251.53;5047318;28;20210;-84
2021/10/06 07:22:49;;;;;;;2.63;1.10;;;;;;;11.99;80.90;100244.50;5048179;28;20273;-85
2021/10/06 07:25:16;;;;;;;1.63;0.80;;;;;;;12.01;80.27;100276.69;5049529;28;20240;-79
2021/10/06 07:27:42;;;;;;;2.50;0.90;;;;;;;12.05;79.72;100294.03;5050358;28;20223;-83
2021/10/06 07:30:12;;;;;;;2.50;0.97;;;;;;;12.09;79.62;100293.03;5047505;28;20279;-81
2021/10/06 07:32:39;;;;;;;2.93;0.60;;;;;;;12.05;78.47;100346.34;5046523;28;20632;-81
2021/10/06 07:35:07;;;;;;;4.00;1.43;;;;;;;12.17;79.86;100300.69;5046665;28;20278;-81
2021/10/06 07:37:34;;;;;;;2.47;1.17;;;;;;;12.18;79.29;100319.84;5046972;28;20915;-83
2021/10/06 07:40:01;;;;;;;3.13;1.03;;;;;;;12.11;78.18;100359.25;5048993;28;20264;-82
2021/10/06 07:42:28;;;;;;;1.90;0.90;;;;;;;12.16;79.01;100353.03;5047939;28;20236;-83
2021/10/06 07:44:58;;;;;;;1.93;0.80;;;;;;;12.21;79.55;100338.06;5047298;28;20209;-82
2021/10/06 07:47:24;;;;;;;2.80;0.80;;;;;;;12.09;77.81;100389.84;5046652;28;20292;-79
2021/10/06 07:49:51;;;;;;;2.50;1.20;;;;;;;12.18;78.29;100380.88;5045715;28;20206;-79
2021/10/06 07:52:17;;;;;;;2.87;1.23;;;;;;;12.28;78.37;100378.88;5047265;28;20215;-79
2021/10/06 07:54:44;;;;;;;1.43;1.00;;;;;;;12.36;78.88;100373.44;5049154;28;20642;-77
2021/10/06 07:57:11;;;;;;;1.60;0.90;;;;;;;12.41;78.20;100385.50;5048389;28;20226;-79
2021/10/06 07:59:38;;;;;;;2.13;0.90;;;;;;;12.44;77.67;100421.19;5047997;28;20236;-79
2021/10/06 08:02:04;;;;;;;3.27;0.87;;;;;;;12.49;77.38;100414.09;5047916;28;20254;-79
2021/10/06 08:04:31;;;;;;;1.93;0.83;;;;;;;12.58;79.11;100403.34;5047192;28;20214;-78
2021/10/06 08:06:57;;;;;;;4.30;0.97;;;;;;;12.63;77.02;100432.91;5048534;28;20230;-79
2021/10/06 08:09:23;;;;;;;2.53;0.73;;;;;;;12.68;76.48;100465.03;5047974;28;20214;-79
2021/10/06 08:11:50;;;;;;;1.67;0.97;;;;;;;12.78;77.31;100444.69;5049255;28;20293;-78
2021/10/06 08:14:18;;;;;;;1.50;0.90;;;;;;;12.75;76.49;100499.81;5049610;28;20234;-79
2021/10/06 08:16:44;;;;;;;1.93;0.70;;;;;;;12.75;77.79;100483.25;5047667;28;20254;-78
2021/10/06 08:19:11;;;;;;;1.43;0.90;;;;;;;12.56;75.99;100509.91;5046024;28;21165;-80
2021/10/06 08:21:37;;;;;;;1.33;0.90;;;;;;;12.54;77.52;100480.28;5046760;28;20226;-82
2021/10/06 08:24:04;;;;;;;1.60;0.80;;;;;;;12.44;76.79;100471.78;5045773;28;21135;-82
2021/10/06 08:26:30;;;;;;;1.33;1.03;;;;;;;12.38;77.09;100474.56;5046841;28;20231;-84
2021/10/06 08:28:57;;;;;;;1.00;0.80;;;;;;;12.42;76.44;100491.91;5045860;28;20739;-82
2021/10/06 08:31:25;;;;;;;3.80;1.00;;;;;;;12.45;77.12;100486.63;5046483;28;20249;-83
2021/10/06 08:33:51;;;;;;;2.27;0.77;;;;;;;12.51;76.71;100488.22;5045909;28;20958;-82
2021/10/06 08:36:17;;;;;;;1.40;0.77;;;;;;;12.52;76.68;100503.88;5046235;28;20707;-81
2021/10/06 08:38:44;;;;;;;2.07;0.80;;;;;;;12.57;76.25;100505.53;5046228;28;20206;-81
2021/10/06 08:41:10;;;;;;;1.20;0.60;;;;;;;12.59;76.24;100522.06;5046150;28;20204;-81
2021/10/06 08:43:38;;;;;;;2.07;1.30;;;;;;;12.63;75.73;100542.88;5045216;28;20293;-83
2021/10/06 08:46:04;;;;;;;2.37;0.93;;;;;;;12.61;73.95;100576.13;5045957;28;20299;-81
2021/10/06 08:48:32;;;;;;;0.67;0.57;;;;;;;12.69;75.20;100576.78;5046353;28;20498;-80
2021/10/06 08:50:58;;;;;;;1.13;0.80;;;;;;;12.70;74.32;100602.09;5045143;28;20261;-82
2021/10/06 08:53:25;;;;;;;2.13;0.70;;;;;;;12.77;74.98;100579.19;5046085;28;20204;-81
2021/10/06 08:55:51;;;;;;;2.70;1.00;;;;;;;12.81;73.75;100612.28;5045951;28;20270;-80
2021/10/06 08:58:18;;;;;;;1.63;0.60;;;;;;;12.87;73.81;100614.75;5045827;28;20239;-82
2021/10/06 09:00:52;;;;;;;1.83;0.60;;;;;;;12.94;73.77;100610.19;5045580;28;20214;-80
2021/10/06 09:03:25;;;;;;;1.23;0.83;;;;;;;12.87;72.29;100674.13;5046021;28;20211;-81
2021/10/06 09:06:02;;;;;;;1.73;0.80;;;;;;;12.98;73.27;100647.66;5044708;28;20214;-82
2021/10/06 09:08:29;;;;;;;1.60;0.73;;;;;;;13.06;73.43;100609.88;5045992;28;20209;-82
2021/10/06 09:10:56;;;;;;;0.83;0.67;;;;;;;13.11;74.50;100607.13;5046226;28;20219;-77
2021/10/06 09:13:26;;;;;;;1.57;0.60;;;;;;;13.14;71.83;100674.34;5044192;28;20605;-79
2021/10/06 09:15:53;;;;;;;1.33;0.80;;;;;;;13.23;71.67;100689.84;5045400;28;20210;-80
2021/10/06 09:18:22;;;;;;;1.67;0.67;;;;;;;13.21;70.21;100723.94;5044105;28;20224;-77
2021/10/06 09:20:49;;;;;;;2.33;0.50;;;;;;;13.22;70.60;100737.91;4347022;28;10000719;-79
2021/10/06 09:23:18;;;;;;;1.90;0.70;;;;;;;13.23;70.30;100735.25;5042344;28;20220;-79
2021/10/06 09:25:48;;;;;;;1.77;0.80;;;;;;;13.23;70.64;100737.03;5041861;28;20244;-80
2021/10/06 09:28:23;;;;;;;1.57;0.77;;;;;;;13.31;71.22;100735.94;5042507;28;20565;-80
2021/10/06 09:30:59;;;;;;;2.60;0.70;;;;;;;13.39;71.09;100733.13;5042342;28;20210;-78
2021/10/06 09:33:26;;;;;;;1.57;0.70;;;;;;;13.52;70.51;100723.19;5041725;28;20207;-79
2021/10/06 09:36:08;;;;;;;1.80;0.90;;;;;;;13.56;70.12;100777.28;5040994;28;20203;-80
2021/10/06 09:38:41;;;;;;;1.30;0.80;;;;;;;13.61;70.32;100764.91;5040599;28;20234;-79
2021/10/06 09:41:40;;;;;;;2.17;0.73;;;;;;;13.53;68.29;100821.09;5041597;28;20250;-78
2021/10/06 09:44:09;;;;;;;1.20;0.50;;;;;;;13.63;68.73;100819.94;5026906;28;20211;-78
2021/10/06 09:46:46;;;;;;;1.10;0.50;;;;;;;13.71;69.54;100799.63;5041145;28;20235;-80
2021/10/06 09:49:20;;;;;;;2.77;0.83;;;;;;;13.67;67.22;100856.53;5042507;28;20215;-81
2021/10/06 09:51:47;;;;;;;1.67;0.90;;;;;;;13.72;68.52;100834.63;5042535;28;20653;-80
2021/10/06 09:54:15;;;;;;;2.20;1.10;;;;;;;13.75;67.53;100852.88;5042548;28;20218;-81
2021/10/06 09:56:43;;;;;;;3.27;0.90;;;;;;;13.67;66.50;100889.81;5040793;28;20243;-79
2021/10/06 09:59:12;;;;;;;0.90;0.63;;;;;;;13.85;67.44;100870.97;5040386;28;20207;-78
2021/10/06 10:01:40;;;;;;;2.40;0.80;;;;;;;13.94;65.63;100922.38;5041004;28;20209;-78
2021/10/06 10:04:08;;;;;;;3.53;0.70;;;;;;;14.05;65.06;100962.34;5040839;28;20203;-79
2021/10/06 10:06:35;;;;;;;1.10;0.53;;;;;;;14.07;64.76;101010.44;5041109;28;20271;-80
2021/10/06 10:09:03;;;;;;;1.53;0.60;;;;;;;14.07;63.38;101054.16;5040716;28;20206;-79
2021/10/06 10:11:34;;;;;;;1.43;0.67;;;;;;;14.13;64.72;101016.41;5040713;28;20215;-77
2021/10/06 10:14:01;;;;;;;1.23;0.50;;;;;;;14.10;65.12;100991.97;5041002;28;20207;-79
2021/10/06 10:16:27;;;;;;;1.50;0.80;;;;;;;14.03;63.81;101013.13;5041304;28;20712;-79
2021/10/06 10:18:53;;;;;;;1.00;0.60;;;;;;;14.11;64.14;101021.69;5044345;28;20280;-79
2021/10/06 10:21:22;;;;;;;2.23;1.00;;;;;;;14.21;66.06;100948.81;5043609;28;20266;-80
2021/10/06 10:24:05;;;;;;;2.83;0.80;;;;;;;14.21;64.19;101022.34;5044830;28;20203;-79
2021/10/06 10:26:33;;;;;;;3.67;0.80;;;;;;;14.21;64.26;101035.47;5044828;28;20253;-78
2021/10/06 10:28:59;;;;;;;3.33;0.70;;;;;;;14.20;64.71;101029.34;5044801;28;20207;-80
2021/10/06 10:31:25;;;;;;;2.10;0.80;;;;;;;14.14;63.74;101008.50;5044729;28;20215;-78
2021/10/06 10:33:53;;;;;;;1.63;0.73;;;;;;;14.15;64.24;101036.47;5044854;28;20216;-79
2021/10/06 10:36:48;;;;;;;1.77;1.17;;;;;;;14.21;64.19;101036.34;5045122;28;20207;-80
2021/10/06 10:39:57;;;;;;;2.07;0.77;;;;;;;14.33;64.48;101031.66;5044237;28;20360;-79
2021/10/06 10:42:59;;;;;;;2.27;0.60;;;;;;;14.37;63.45;101075.34;5043797;28;20699;-80
2021/10/06 10:45:51;;;;;;;2.17;0.80;;;;;;;14.57;62.51;101094.16;5044329;28;20223;-79
2021/10/06 10:48:20;;;;;;;2.17;0.70;;;;;;;14.50;61.99;101143.31;5029391;28;20717;-79
2021/10/06 10:51:07;;;;;;;1.43;0.60;;;;;;;14.50;63.10;101106.53;5043799;28;20207;-77
2021/10/06 10:53:57;;;;;;;1.80;0.70;;;;;;;14.52;62.93;101111.75;5044564;28;20252;-80
2021/10/06 10:56:42;;;;;;;1.57;0.60;;;;;;;14.57;62.48;101095.88;5044311;28;20231;-79
2021/10/06 10:59:12;;;;;;;2.37;0.77;;;;;;;14.61;62.45;101118.59;5044628;28;20286;-78
2021/10/06 11:01:44;;;;;;;1.57;0.43;;;;;;;14.67;61.34;101155.22;5044975;28;20253;-78
2021/10/06 11:04:15;;;;;;;0.90;0.63;;;;;;;14.66;60.59;101188.50;5044804;28;20222;-78
2021/10/06 11:06:43;;;;;;;1.13;0.63;;;;;;;14.63;59.89;101214.88;5045324;28;20274;-79
2021/10/06 11:09:37;;;;;;;1.13;0.57;;;;;;;14.45;60.14;101200.34;5046243;28;20266;-76
2021/10/06 11:12:30;;;;;;;1.63;0.63;;;;;;;14.59;61.40;101159.78;5046039;28;20213;-80
2021/10/06 11:15:22;;;;;;;1.57;0.73;;;;;;;14.56;59.35;101186.09;5044582;28;20206;-77
2021/10/06 11:18:22;;;;;;;0.90;0.60;;;;;;;14.54;59.75;101216.81;5045032;28;20601;-78
2021/10/06 11:20:58;;;;;;;0.83;0.60;;;;;;;14.74;60.90;101169.06;5044010;28;20211;-77
2021/10/06 11:23:57;;;;;;;2.63;0.60;;;;;;;14.67;59.98;101234.91;5045791;28;20274;-81
2021/10/06 11:26:32;;;;;;;0.93;0.50;;;;;;;14.65;59.43;101220.09;5045174;28;20250;-80
2021/10/06 11:29:03;;;;;;;0.70;0.50;;;;;;;14.68;60.45;101186.69;5044535;28;20238;-80
2021/10/06 11:31:32;;;;;;;12.43;0.83;;;;;;;14.59;60.80;101188.69;5045328;28;20219;-80
2021/10/06 11:34:02;;;;;;;1.60;0.60;;;;;;;14.63;61.58;101164.94;5045099;28;20277;-79